createdAt,value
2017-09-27T00:00:23.695Z,16.74
2017-09-27T00:00:51.845Z,16.77
2017-09-27T00:01:19.996Z,16.82
2017-09-27T00:01:48.116Z,16.81
2017-09-27T00:02:16.252Z,16.85
2017-09-27T00:02:44.301Z,16.76
2017-09-27T00:03:12.206Z,16.74
2017-09-27T00:04:13.620Z,16.76
2017-09-27T00:04:41.498Z,16.77
2017-09-27T00:05:09.585Z,16.8
2017-09-27T00:05:37.683Z,16.72
2017-09-27T00:06:05.790Z,16.69
2017-09-27T00:06:33.816Z,16.73
2017-09-27T00:07:01.852Z,16.65
2017-09-27T00:07:29.887Z,16.76
2017-09-27T00:07:57.822Z,16.63
2017-09-27T00:08:25.856Z,16.63
2017-09-27T00:08:53.994Z,16.63
2017-09-27T00:09:22.119Z,16.73
2017-09-27T00:09:50.250Z,16.72
2017-09-27T00:10:18.279Z,16.74
2017-09-27T00:10:46.294Z,16.69
2017-09-27T00:11:14.148Z,16.7
2017-09-27T00:11:42.191Z,16.73
2017-09-27T00:12:10.343Z,16.76
2017-09-27T00:12:38.483Z,16.66
2017-09-27T00:13:06.497Z,16.67
2017-09-27T00:13:34.645Z,16.62
2017-09-27T00:14:02.592Z,16.74
2017-09-27T00:14:30.718Z,16.69
2017-09-27T00:14:58.851Z,16.7
2017-09-27T00:15:26.958Z,16.7
2017-09-27T00:15:55.120Z,16.73
2017-09-27T00:16:23.149Z,16.73
2017-09-27T00:16:51.094Z,16.74
2017-09-27T00:17:19.260Z,16.69
2017-09-27T00:17:47.398Z,16.72
2017-09-27T00:18:15.332Z,16.72
2017-09-27T00:18:43.380Z,16.77
2017-09-27T00:19:11.299Z,16.67
2017-09-27T00:19:39.363Z,16.73
2017-09-27T00:20:07.527Z,16.66
2017-09-27T00:20:35.646Z,16.67
2017-09-27T00:21:03.681Z,16.69
2017-09-27T00:21:31.737Z,16.72
2017-09-27T00:21:59.802Z,16.58
2017-09-27T00:23:23.507Z,16.67
2017-09-27T00:23:51.633Z,16.62
2017-09-27T00:24:19.714Z,16.66
2017-09-27T00:24:47.690Z,16.62
2017-09-27T00:25:15.706Z,16.66
2017-09-27T00:25:43.622Z,16.66
2017-09-27T00:26:11.424Z,16.62
2017-09-27T00:26:39.432Z,16.67
2017-09-27T00:27:07.230Z,16.62
2017-09-27T00:27:35.133Z,16.66
2017-09-27T00:28:03.234Z,16.65
2017-09-27T00:28:31.334Z,16.65
2017-09-27T00:28:59.322Z,16.65
2017-09-27T00:29:27.205Z,16.63
2017-09-27T00:29:55.091Z,16.62
2017-09-27T00:30:23.113Z,16.58
2017-09-27T00:30:51.200Z,16.72
2017-09-27T00:31:19.321Z,16.59
2017-09-27T00:31:47.261Z,16.72
2017-09-27T00:32:15.277Z,16.73
2017-09-27T00:32:43.364Z,16.73
2017-09-27T00:33:11.361Z,16.69
2017-09-27T00:33:39.337Z,16.73
2017-09-27T00:34:07.392Z,16.7
2017-09-27T00:34:35.590Z,16.62
2017-09-27T00:35:03.592Z,16.73
2017-09-27T00:35:31.584Z,16.73
2017-09-27T00:35:59.674Z,16.55
2017-09-27T00:36:27.666Z,16.58
2017-09-27T00:36:55.667Z,16.67
2017-09-27T00:37:23.558Z,16.65
2017-09-27T00:37:51.572Z,16.55
2017-09-27T00:38:19.572Z,16.67
2017-09-27T00:38:47.655Z,16.63
2017-09-27T00:39:15.640Z,16.63
2017-09-27T00:39:43.813Z,16.63
2017-09-27T00:40:11.872Z,16.65
2017-09-27T00:40:39.869Z,16.7
2017-09-27T00:41:07.955Z,16.62
2017-09-27T00:41:35.842Z,16.63
2017-09-27T00:42:03.871Z,16.69
2017-09-27T00:42:31.973Z,16.69
2017-09-27T00:42:59.966Z,16.69
2017-09-27T00:43:27.841Z,16.72
2017-09-27T00:43:55.856Z,16.67
2017-09-27T00:44:23.925Z,16.7
2017-09-27T00:44:51.920Z,16.65
2017-09-27T00:45:19.937Z,16.67
2017-09-27T00:45:48.008Z,16.8
2017-09-27T00:46:15.912Z,16.8
2017-09-27T00:46:43.950Z,16.69
2017-09-27T00:47:11.952Z,16.7
2017-09-27T00:47:39.795Z,16.74
2017-09-27T00:48:07.885Z,16.76
2017-09-27T00:48:35.873Z,16.74
2017-09-27T00:49:03.863Z,16.74
2017-09-27T00:49:31.840Z,16.76
2017-09-27T00:49:59.744Z,16.69
2017-09-27T00:50:27.784Z,16.7
2017-09-27T00:51:21.225Z,16.76
2017-09-27T00:51:49.185Z,16.82
2017-09-27T00:52:17.080Z,16.76
2017-09-27T00:52:45.054Z,16.81
2017-09-27T00:53:12.918Z,16.76
2017-09-27T00:53:40.801Z,16.77
2017-09-27T00:54:08.796Z,16.81
2017-09-27T00:54:36.943Z,16.82
2017-09-27T00:55:04.926Z,16.81
2017-09-27T00:55:32.941Z,16.76
2017-09-27T00:56:00.926Z,16.74
2017-09-27T00:56:28.902Z,16.73
2017-09-27T00:56:56.981Z,16.7
2017-09-27T00:57:24.955Z,16.76
2017-09-27T00:57:52.968Z,16.73
2017-09-27T00:58:21.032Z,16.74
2017-09-27T00:58:49.103Z,16.74
2017-09-27T00:59:17.111Z,16.72
2017-09-27T00:59:45.276Z,16.74
2017-09-27T01:00:13.273Z,16.69
2017-09-27T01:00:41.290Z,16.7
2017-09-27T01:01:09.337Z,16.7
2017-09-27T01:01:37.475Z,16.69
2017-09-27T01:02:05.403Z,16.7
2017-09-27T01:02:33.448Z,16.69
2017-09-27T01:03:01.486Z,16.65
2017-09-27T01:03:29.528Z,16.77
2017-09-27T01:03:57.550Z,16.69
2017-09-27T01:04:25.470Z,16.72
2017-09-27T01:04:53.702Z,16.73
2017-09-27T01:05:21.727Z,16.7
2017-09-27T01:05:49.881Z,16.74
2017-09-27T01:06:17.912Z,16.74
2017-09-27T01:06:45.877Z,16.65
2017-09-27T01:07:14.029Z,16.76
2017-09-27T01:07:42.076Z,16.72
2017-09-27T01:08:09.896Z,16.67
2017-09-27T01:08:38.038Z,16.7
2017-09-27T01:09:06.175Z,16.81
2017-09-27T01:09:34.321Z,16.74
2017-09-27T01:10:02.476Z,16.73
2017-09-27T01:10:30.588Z,16.69
2017-09-27T01:10:58.750Z,16.7
2017-09-27T01:11:26.917Z,16.77
2017-09-27T01:11:54.860Z,16.69
2017-09-27T01:12:22.979Z,16.73
2017-09-27T01:12:50.903Z,16.74
2017-09-27T01:13:18.826Z,16.7
2017-09-27T01:13:46.754Z,16.69
2017-09-27T01:14:14.889Z,16.66
2017-09-27T01:14:43.152Z,16.72
2017-09-27T01:15:36.696Z,16.67
2017-09-27T01:16:04.670Z,16.67
2017-09-27T01:16:32.755Z,16.73
2017-09-27T01:17:00.739Z,16.7
2017-09-27T01:17:28.751Z,16.7
2017-09-27T01:17:56.681Z,16.73
2017-09-27T01:18:24.616Z,16.74
2017-09-27T01:18:52.662Z,16.7
2017-09-27T01:19:20.716Z,16.72
2017-09-27T01:19:48.797Z,16.7
2017-09-27T01:20:16.822Z,16.59
2017-09-27T01:20:44.761Z,16.74
2017-09-27T01:21:12.804Z,16.72
2017-09-27T01:21:40.808Z,16.74
2017-09-27T01:22:08.966Z,16.67
2017-09-27T01:22:37.121Z,16.7
2017-09-27T01:23:05.037Z,16.72
2017-09-27T01:23:33.068Z,16.66
2017-09-27T01:24:01.107Z,16.72
2017-09-27T01:24:29.227Z,16.72
2017-09-27T01:24:57.467Z,16.65
2017-09-27T01:25:25.488Z,16.73
2017-09-27T01:25:53.542Z,16.7
2017-09-27T01:26:21.576Z,16.59
2017-09-27T01:26:49.425Z,16.74
2017-09-27T01:27:17.525Z,16.66
2017-09-27T01:27:45.574Z,16.77
2017-09-27T01:28:13.725Z,16.73
2017-09-27T01:28:41.863Z,16.7
2017-09-27T01:29:09.717Z,16.69
2017-09-27T01:29:37.765Z,16.59
2017-09-27T01:30:05.802Z,16.69
2017-09-27T01:30:33.719Z,16.65
2017-09-27T01:31:01.846Z,16.62
2017-09-27T01:31:29.871Z,16.57
2017-09-27T01:31:57.907Z,16.58
2017-09-27T01:32:25.922Z,16.62
2017-09-27T01:32:53.940Z,16.63
2017-09-27T01:33:21.888Z,16.62
2017-09-27T01:33:50.067Z,16.65
2017-09-27T01:34:18.099Z,16.65
2017-09-27T01:34:46.262Z,16.62
2017-09-27T01:35:14.476Z,16.65
2017-09-27T01:35:42.503Z,16.62
2017-09-27T01:36:10.632Z,16.66
2017-09-27T01:36:38.575Z,16.63
2017-09-27T01:37:06.714Z,16.67
2017-09-27T01:37:34.851Z,16.62
2017-09-27T01:38:02.694Z,16.65
2017-09-27T01:38:30.754Z,16.66
2017-09-27T01:38:58.776Z,16.63
2017-09-27T01:39:26.921Z,16.65
2017-09-27T01:39:55.047Z,16.57
2017-09-27T01:40:23.178Z,16.55
2017-09-27T01:40:51.203Z,16.51
2017-09-27T01:41:19.341Z,16.63
2017-09-27T01:41:47.467Z,16.59
2017-09-27T01:42:15.527Z,16.57
2017-09-27T01:42:43.692Z,16.59
2017-09-27T01:43:11.838Z,16.59
2017-09-27T01:43:39.953Z,16.57
2017-09-27T01:44:08.006Z,16.58
2017-09-27T01:44:35.886Z,16.58
2017-09-27T01:45:04.100Z,16.59
2017-09-27T01:45:32.062Z,16.55
2017-09-27T01:46:00.120Z,16.54
2017-09-27T01:46:28.155Z,16.55
2017-09-27T01:46:56.090Z,16.55
2017-09-27T01:47:24.141Z,16.52
2017-09-27T01:47:52.156Z,16.49
2017-09-27T01:48:20.194Z,16.52
2017-09-27T01:48:48.260Z,16.49
2017-09-27T01:49:16.378Z,16.51
2017-09-27T01:49:44.494Z,16.52
2017-09-27T01:50:12.427Z,16.47
2017-09-27T01:50:40.452Z,16.48
2017-09-27T01:51:08.511Z,16.47
2017-09-27T01:51:36.553Z,16.44
2017-09-27T01:52:04.492Z,16.44
2017-09-27T01:52:32.528Z,16.45
2017-09-27T01:53:00.592Z,16.42
2017-09-27T01:53:28.510Z,16.36
2017-09-27T01:53:56.359Z,16.44
2017-09-27T01:54:24.489Z,16.39
2017-09-27T01:54:52.618Z,16.45
2017-09-27T01:55:20.734Z,16.39
2017-09-27T01:55:48.863Z,16.36
2017-09-27T01:56:16.973Z,16.36
2017-09-27T01:56:45.100Z,16.4
2017-09-27T01:57:13.156Z,16.39
2017-09-27T01:57:41.169Z,16.39
2017-09-27T01:58:09.106Z,16.36
2017-09-27T01:58:37.170Z,16.37
2017-09-27T01:59:05.226Z,16.36
2017-09-27T01:59:33.250Z,16.44
2017-09-27T02:00:01.362Z,16.37
2017-09-27T02:00:29.607Z,16.45
2017-09-27T02:00:57.734Z,16.36
2017-09-27T02:01:48.509Z,16.4
2017-09-27T02:02:16.662Z,16.37
2017-09-27T02:02:44.819Z,16.39
2017-09-27T02:03:12.950Z,16.42
2017-09-27T02:03:40.866Z,16.34
2017-09-27T02:04:08.696Z,16.4
2017-09-27T02:04:36.771Z,16.4
2017-09-27T02:05:04.797Z,16.37
2017-09-27T02:05:33.024Z,16.4
2017-09-27T02:06:01.160Z,16.47
2017-09-27T02:06:29.142Z,16.44
2017-09-27T02:06:57.288Z,16.39
2017-09-27T02:07:25.417Z,16.39
2017-09-27T02:07:53.447Z,16.39
2017-09-27T02:08:21.471Z,16.39
2017-09-27T02:08:49.597Z,16.44
2017-09-27T02:09:17.622Z,16.4
2017-09-27T02:09:45.656Z,16.4
2017-09-27T02:10:13.697Z,16.39
2017-09-27T02:10:41.826Z,16.39
2017-09-27T02:11:09.974Z,16.39
2017-09-27T02:11:38.106Z,16.36
2017-09-27T02:12:06.069Z,16.39
2017-09-27T02:12:34.215Z,16.36
2017-09-27T02:13:02.298Z,16.36
2017-09-27T02:13:30.437Z,16.39
2017-09-27T02:13:58.563Z,16.34
2017-09-27T02:14:26.601Z,16.34
2017-09-27T02:14:54.748Z,16.34
2017-09-27T02:15:22.803Z,16.3
2017-09-27T02:15:50.949Z,16.32
2017-09-27T02:16:18.982Z,16.29
2017-09-27T02:16:47.017Z,16.34
2017-09-27T02:17:15.041Z,16.32
2017-09-27T02:17:43.182Z,16.32
2017-09-27T02:18:11.222Z,16.39
2017-09-27T02:18:39.304Z,16.26
2017-09-27T02:19:07.367Z,16.26
2017-09-27T02:19:35.294Z,16.22
2017-09-27T02:20:03.417Z,16.3
2017-09-27T02:20:31.557Z,16.33
2017-09-27T02:20:59.494Z,16.3
2017-09-27T02:21:27.624Z,16.32
2017-09-27T02:21:55.816Z,16.29
2017-09-27T02:22:23.947Z,16.32
2017-09-27T02:22:51.881Z,16.29
2017-09-27T02:23:20.019Z,16.18
2017-09-27T02:23:48.048Z,16.22
2017-09-27T02:24:16.176Z,16.18
2017-09-27T02:24:44.105Z,16.22
2017-09-27T02:25:12.138Z,16.18
2017-09-27T02:25:40.402Z,16.21
2017-09-27T02:26:08.438Z,16.25
2017-09-27T02:26:36.557Z,16.27
2017-09-27T02:27:04.591Z,16.16
2017-09-27T02:27:32.619Z,16.18
2017-09-27T02:28:00.660Z,16.18
2017-09-27T02:28:28.816Z,16.25
2017-09-27T02:28:56.963Z,16.14
2017-09-27T02:29:24.786Z,16.22
2017-09-27T02:29:52.925Z,16.17
2017-09-27T02:30:21.043Z,16.27
2017-09-27T02:30:49.194Z,16.18
2017-09-27T02:31:17.244Z,16.16
2017-09-27T02:31:45.083Z,16.21
2017-09-27T02:32:13.202Z,16.25
2017-09-27T02:32:41.249Z,16.11
2017-09-27T02:33:09.375Z,16.18
2017-09-27T02:33:37.190Z,16.13
2017-09-27T02:34:05.354Z,16.14
2017-09-27T02:34:33.395Z,16.1
2017-09-27T02:35:01.429Z,16.11
2017-09-27T02:35:29.562Z,16.17
2017-09-27T02:35:57.796Z,16.11
2017-09-27T02:36:25.805Z,16.14
2017-09-27T02:36:53.613Z,16.14
2017-09-27T02:37:21.753Z,16.04
2017-09-27T02:37:49.676Z,16.04
2017-09-27T02:38:17.811Z,16.13
2017-09-27T02:38:45.844Z,16.04
2017-09-27T02:39:13.876Z,16.04
2017-09-27T02:39:41.950Z,16.1
2017-09-27T02:40:09.967Z,16.1
2017-09-27T02:40:38.093Z,16.07
2017-09-27T02:41:06.057Z,16.04
2017-09-27T02:41:34.245Z,16.08
2017-09-27T02:42:02.167Z,16.08
2017-09-27T02:42:30.311Z,16.02
2017-09-27T02:42:58.447Z,16.06
2017-09-27T02:43:26.605Z,16.04
2017-09-27T02:43:54.638Z,16
2017-09-27T02:44:22.778Z,15.96
2017-09-27T02:44:50.808Z,16.06
2017-09-27T02:45:18.720Z,15.98
2017-09-27T02:45:46.848Z,16.08
2017-09-27T02:46:15.006Z,16.02
2017-09-27T02:46:43.150Z,16.07
2017-09-27T02:47:11.292Z,15.99
2017-09-27T02:47:39.244Z,16.04
2017-09-27T02:48:07.417Z,16.1
2017-09-27T02:48:35.585Z,16.11
2017-09-27T02:49:03.678Z,16.04
2017-09-27T02:49:31.750Z,16.11
2017-09-27T02:49:59.880Z,16.06
2017-09-27T02:50:27.930Z,16.04
2017-09-27T02:50:55.951Z,16.08
2017-09-27T02:51:23.775Z,16.14
2017-09-27T02:51:51.813Z,15.96
2017-09-27T02:52:19.849Z,16.1
2017-09-27T02:52:47.777Z,16.02
2017-09-27T02:53:15.909Z,16.07
2017-09-27T02:53:44.059Z,16.1
2017-09-27T02:54:12.211Z,16.13
2017-09-27T02:54:40.231Z,16.04
2017-09-27T02:55:08.365Z,16.1
2017-09-27T02:55:36.536Z,16.13
2017-09-27T02:56:04.692Z,16.17
2017-09-27T02:56:32.838Z,16.1
2017-09-27T02:57:00.894Z,16.06
2017-09-27T02:57:29.028Z,16.04
2017-09-27T02:57:57.063Z,16.14
2017-09-27T02:58:25.174Z,15.99
2017-09-27T02:58:53.319Z,16.17
2017-09-27T02:59:21.267Z,16.16
2017-09-27T02:59:49.387Z,16.04
2017-09-27T03:00:17.424Z,16.08
2017-09-27T03:00:45.491Z,16.07
2017-09-27T03:01:13.622Z,15.99
2017-09-27T03:01:41.662Z,16
2017-09-27T03:02:09.584Z,16.11
2017-09-27T03:02:37.700Z,16.16
2017-09-27T03:03:05.746Z,16.08
2017-09-27T03:03:33.891Z,16.14
2017-09-27T03:04:01.952Z,16.22
2017-09-27T03:04:29.973Z,16.13
2017-09-27T03:04:58.119Z,16.17
2017-09-27T03:05:26.041Z,16.13
2017-09-27T03:05:54.298Z,16.1
2017-09-27T03:06:22.411Z,16.14
2017-09-27T03:06:50.544Z,16.14
2017-09-27T03:07:18.624Z,16.11
2017-09-27T03:07:46.560Z,16.22
2017-09-27T03:08:14.706Z,16.13
2017-09-27T03:08:42.718Z,16.1
2017-09-27T03:09:10.759Z,16.1
2017-09-27T03:09:38.795Z,16.14
2017-09-27T03:10:06.915Z,16.11
2017-09-27T03:10:34.853Z,16.14
2017-09-27T03:11:02.874Z,16.1
2017-09-27T03:11:31.020Z,16.16
2017-09-27T03:11:59.055Z,16.16
2017-09-27T03:12:27.113Z,16.1
2017-09-27T03:12:55.166Z,16.13
2017-09-27T03:13:23.292Z,16.1
2017-09-27T03:13:51.326Z,16.08
2017-09-27T03:14:19.356Z,16.13
2017-09-27T03:14:47.511Z,16.11
2017-09-27T03:15:15.531Z,16.13
2017-09-27T03:15:43.466Z,16.1
2017-09-27T03:16:11.586Z,16.18
2017-09-27T03:16:39.509Z,16.11
2017-09-27T03:17:07.537Z,16.14
2017-09-27T03:17:35.584Z,16.22
2017-09-27T03:18:03.732Z,16.11
2017-09-27T03:18:31.885Z,16.18
2017-09-27T03:19:00.025Z,16.17
2017-09-27T03:19:28.043Z,16.21
2017-09-27T03:19:55.884Z,16.16
2017-09-27T03:20:23.806Z,16.21
2017-09-27T03:20:51.858Z,16.16
2017-09-27T03:21:20.007Z,16.21
2017-09-27T03:21:48.141Z,16.18
2017-09-27T03:22:16.169Z,16.26
2017-09-27T03:22:44.112Z,16.21
2017-09-27T03:23:12.267Z,16.18
2017-09-27T03:23:40.390Z,16.17
2017-09-27T03:24:08.516Z,16.22
2017-09-27T03:24:36.546Z,16.16
2017-09-27T03:25:04.682Z,16.17
2017-09-27T03:25:32.811Z,16.26
2017-09-27T03:26:00.761Z,16.29
2017-09-27T03:26:28.778Z,16.22
2017-09-27T03:26:56.715Z,16.14
2017-09-27T03:27:24.654Z,16.3
2017-09-27T03:27:52.688Z,16.26
2017-09-27T03:28:20.754Z,16.21
2017-09-27T03:28:48.778Z,16.32
2017-09-27T03:29:16.808Z,16.16
2017-09-27T03:29:44.754Z,16.14
2017-09-27T03:30:12.898Z,16.21
2017-09-27T03:30:40.936Z,16.26
2017-09-27T03:31:09.055Z,16.25
2017-09-27T03:31:37.082Z,16.29
2017-09-27T03:32:05.104Z,16.25
2017-09-27T03:32:33.040Z,16.18
2017-09-27T03:33:01.172Z,16.18
2017-09-27T03:33:29.317Z,16.18
2017-09-27T03:33:57.466Z,16.18
2017-09-27T03:34:25.497Z,16.25
2017-09-27T03:34:53.416Z,16.16
2017-09-27T03:35:21.436Z,16.21
2017-09-27T03:35:49.590Z,16.17
2017-09-27T03:36:17.808Z,16.16
2017-09-27T03:36:45.885Z,16.18
2017-09-27T03:37:13.989Z,16.11
2017-09-27T03:37:42.153Z,16.18
2017-09-27T03:38:10.192Z,16.17
2017-09-27T03:38:38.005Z,16.13
2017-09-27T03:39:06.067Z,16.13
2017-09-27T03:39:34.204Z,16.21
2017-09-27T03:40:02.355Z,16.16
2017-09-27T03:40:30.274Z,16.08
2017-09-27T03:40:58.310Z,16.16
2017-09-27T03:41:26.545Z,16.11
2017-09-27T03:41:54.684Z,16.14
2017-09-27T03:42:22.726Z,16.08
2017-09-27T03:42:50.745Z,16.08
2017-09-27T03:43:18.905Z,16.11
2017-09-27T03:43:46.809Z,16.07
2017-09-27T03:44:14.843Z,16.1
2017-09-27T03:44:42.660Z,16.1
2017-09-27T03:45:10.696Z,16.1
2017-09-27T03:45:38.550Z,16.08
2017-09-27T03:46:06.691Z,16.04
2017-09-27T03:46:34.831Z,15.99
2017-09-27T03:47:02.893Z,15.91
2017-09-27T03:47:31.039Z,16.04
2017-09-27T03:47:59.048Z,15.99
2017-09-27T03:48:26.978Z,15.95
2017-09-27T03:48:55.121Z,15.92
2017-09-27T03:49:23.257Z,15.84
2017-09-27T03:49:51.372Z,15.88
2017-09-27T03:50:19.300Z,15.91
2017-09-27T03:50:47.457Z,15.83
2017-09-27T03:51:15.600Z,15.86
2017-09-27T03:51:43.825Z,15.86
2017-09-27T03:52:11.872Z,15.86
2017-09-27T03:52:39.718Z,15.8
2017-09-27T03:53:07.856Z,15.86
2017-09-27T03:53:35.815Z,15.84
2017-09-27T03:54:03.745Z,15.89
2017-09-27T03:54:31.804Z,15.74
2017-09-27T03:54:59.940Z,15.84
2017-09-27T03:55:28.071Z,15.77
2017-09-27T03:55:56.193Z,15.77
2017-09-27T03:56:24.244Z,15.8
2017-09-27T03:56:52.372Z,15.75
2017-09-27T03:57:20.181Z,15.73
2017-09-27T03:57:48.211Z,15.81
2017-09-27T03:58:16.348Z,15.73
2017-09-27T03:58:44.301Z,15.7
2017-09-27T03:59:12.443Z,15.73
2017-09-27T03:59:40.472Z,15.7
2017-09-27T04:00:08.319Z,15.71
2017-09-27T04:00:36.492Z,15.68
2017-09-27T04:01:04.620Z,15.67
2017-09-27T04:01:32.896Z,15.73
2017-09-27T04:02:01.047Z,15.65
2017-09-27T04:02:29.159Z,15.65
2017-09-27T04:02:57.200Z,15.65
2017-09-27T04:03:25.232Z,15.67
2017-09-27T04:03:53.064Z,15.63
2017-09-27T04:04:20.977Z,15.67
2017-09-27T04:04:49.028Z,15.73
2017-09-27T04:05:16.966Z,15.67
2017-09-27T04:05:44.994Z,15.73
2017-09-27T04:06:13.023Z,15.59
2017-09-27T04:06:41.253Z,15.65
2017-09-27T04:07:09.441Z,15.67
2017-09-27T04:07:37.489Z,15.7
2017-09-27T04:08:05.530Z,15.7
2017-09-27T04:08:33.577Z,15.65
2017-09-27T04:09:01.649Z,15.7
2017-09-27T04:09:29.689Z,15.6
2017-09-27T04:09:57.848Z,15.63
2017-09-27T04:10:25.889Z,15.58
2017-09-27T04:10:54.036Z,15.58
2017-09-27T04:11:21.964Z,15.58
2017-09-27T04:11:50.194Z,15.58
2017-09-27T04:12:18.342Z,15.63
2017-09-27T04:12:46.483Z,15.68
2017-09-27T04:13:14.431Z,15.62
2017-09-27T04:13:42.468Z,15.6
2017-09-27T04:14:10.536Z,15.6
2017-09-27T04:14:38.477Z,15.6
2017-09-27T04:15:06.521Z,15.65
2017-09-27T04:15:34.438Z,15.59
2017-09-27T04:16:02.451Z,15.62
2017-09-27T04:16:30.502Z,15.59
2017-09-27T04:16:58.641Z,15.65
2017-09-27T04:17:26.701Z,15.67
2017-09-27T04:17:54.662Z,15.68
2017-09-27T04:18:22.810Z,15.65
2017-09-27T04:18:50.849Z,15.55
2017-09-27T04:19:18.872Z,15.58
2017-09-27T04:19:47.027Z,15.59
2017-09-27T04:20:14.871Z,15.56
2017-09-27T04:20:42.773Z,15.52
2017-09-27T04:21:10.806Z,15.59
2017-09-27T04:21:38.958Z,15.65
2017-09-27T04:22:07.094Z,15.55
2017-09-27T04:22:35.124Z,15.55
2017-09-27T04:23:03.271Z,15.59
2017-09-27T04:23:31.434Z,15.52
2017-09-27T04:23:59.471Z,15.52
2017-09-27T04:24:27.505Z,15.53
2017-09-27T04:24:55.340Z,15.51
2017-09-27T04:25:23.411Z,15.56
2017-09-27T04:25:51.546Z,15.53
2017-09-27T04:26:20.076Z,15.51
2017-09-27T04:26:48.291Z,15.55
2017-09-27T04:27:16.218Z,15.59
2017-09-27T04:27:44.150Z,15.51
2017-09-27T04:28:12.155Z,15.62
2017-09-27T04:28:40.292Z,15.58
2017-09-27T04:29:08.444Z,15.49
2017-09-27T04:29:36.483Z,15.56
2017-09-27T04:30:04.518Z,15.55
2017-09-27T04:30:32.357Z,15.45
2017-09-27T04:31:00.386Z,15.49
2017-09-27T04:31:28.418Z,15.51
2017-09-27T04:31:56.659Z,15.51
2017-09-27T04:32:24.814Z,15.47
2017-09-27T04:32:52.878Z,15.59
2017-09-27T04:33:20.901Z,15.52
2017-09-27T04:33:48.769Z,15.55
2017-09-27T04:34:16.690Z,15.47
2017-09-27T04:34:44.707Z,15.51
2017-09-27T04:35:12.877Z,15.51
2017-09-27T04:35:40.913Z,15.45
2017-09-27T04:36:09.041Z,15.58
2017-09-27T04:36:37.179Z,15.51
2017-09-27T04:37:05.439Z,15.51
2017-09-27T04:37:33.499Z,15.53
2017-09-27T04:38:01.316Z,15.59
2017-09-27T04:38:29.442Z,15.47
2017-09-27T04:38:57.489Z,15.43
2017-09-27T04:39:25.606Z,15.47
2017-09-27T04:39:53.636Z,15.52
2017-09-27T04:40:21.685Z,15.38
2017-09-27T04:40:49.607Z,15.34
2017-09-27T04:41:17.734Z,15.41
2017-09-27T04:41:45.786Z,15.37
2017-09-27T04:42:14.056Z,15.37
2017-09-27T04:42:42.186Z,15.52
2017-09-27T04:43:10.369Z,15.52
2017-09-27T04:43:38.163Z,15.38
2017-09-27T04:44:06.219Z,15.47
2017-09-27T04:44:34.279Z,15.38
2017-09-27T04:45:02.292Z,15.4
2017-09-27T04:45:30.441Z,15.38
2017-09-27T04:45:58.392Z,15.35
2017-09-27T04:46:26.412Z,15.41
2017-09-27T04:46:54.555Z,15.34
2017-09-27T04:47:22.487Z,15.35
2017-09-27T04:47:50.487Z,15.34
2017-09-27T04:48:18.428Z,15.37
2017-09-27T04:48:46.475Z,15.38
2017-09-27T04:49:14.601Z,15.3
2017-09-27T04:49:42.736Z,15.41
2017-09-27T04:50:10.875Z,15.4
2017-09-27T04:50:38.919Z,15.38
2017-09-27T04:51:07.060Z,15.45
2017-09-27T04:51:34.979Z,15.43
2017-09-27T04:52:03.096Z,15.38
2017-09-27T04:52:31.152Z,15.38
2017-09-27T04:52:59.204Z,15.35
2017-09-27T04:53:27.349Z,15.34
2017-09-27T04:53:55.471Z,15.41
2017-09-27T04:54:23.600Z,15.41
2017-09-27T04:54:51.632Z,15.38
2017-09-27T04:55:19.813Z,15.3
2017-09-27T04:55:47.735Z,15.37
2017-09-27T04:56:15.761Z,15.43
2017-09-27T04:56:43.815Z,15.45
2017-09-27T04:57:11.771Z,15.37
2017-09-27T04:57:39.809Z,15.44
2017-09-27T04:58:07.830Z,15.41
2017-09-27T04:58:35.652Z,15.37
2017-09-27T04:59:03.586Z,15.38
2017-09-27T04:59:31.417Z,15.34
2017-09-27T04:59:59.523Z,15.37
2017-09-27T05:00:27.440Z,15.37
2017-09-27T05:00:55.503Z,15.37
2017-09-27T05:01:23.561Z,15.38
2017-09-27T05:01:51.509Z,15.37
2017-09-27T05:02:19.733Z,15.43
2017-09-27T05:02:47.880Z,15.37
2017-09-27T05:03:15.901Z,15.41
2017-09-27T05:03:44.034Z,15.4
2017-09-27T05:04:11.759Z,15.4
2017-09-27T05:04:39.593Z,15.37
2017-09-27T05:05:07.638Z,15.41
2017-09-27T05:05:35.656Z,15.38
2017-09-27T05:06:03.706Z,15.33
2017-09-27T05:06:31.863Z,15.35
2017-09-27T05:06:59.967Z,15.4
2017-09-27T05:07:27.989Z,15.41
2017-09-27T05:07:55.732Z,15.4
2017-09-27T05:08:23.907Z,15.26
2017-09-27T05:08:51.947Z,15.38
2017-09-27T05:09:20.106Z,15.38
2017-09-27T05:09:48.144Z,15.3
2017-09-27T05:10:16.065Z,15.26
2017-09-27T05:10:44.173Z,15.31
2017-09-27T05:11:12.307Z,15.19
2017-09-27T05:11:40.456Z,15.23
2017-09-27T05:12:08.704Z,15.23
2017-09-27T05:12:36.853Z,15.22
2017-09-27T05:13:04.989Z,15.25
2017-09-27T05:13:33.142Z,15.22
2017-09-27T05:14:01.194Z,15.23
2017-09-27T05:14:29.230Z,15.33
2017-09-27T05:14:57.352Z,15.23
2017-09-27T05:15:25.493Z,15.26
2017-09-27T05:15:53.614Z,15.27
2017-09-27T05:16:21.747Z,15.27
2017-09-27T05:16:49.883Z,15.3
2017-09-27T05:17:18.009Z,15.3
2017-09-27T05:17:46.073Z,15.27
2017-09-27T05:18:14.212Z,15.27
2017-09-27T05:18:42.250Z,15.23
2017-09-27T05:19:10.411Z,15.27
2017-09-27T05:19:38.445Z,15.31
2017-09-27T05:20:06.584Z,15.27
2017-09-27T05:20:34.501Z,15.22
2017-09-27T05:21:02.555Z,15.22
2017-09-27T05:21:30.611Z,15.16
2017-09-27T05:21:58.653Z,15.25
2017-09-27T05:22:26.789Z,15.2
2017-09-27T05:22:54.816Z,15.25
2017-09-27T05:23:22.926Z,15.25
2017-09-27T05:23:51.076Z,15.27
2017-09-27T05:24:19.023Z,15.26
2017-09-27T05:24:47.154Z,15.26
2017-09-27T05:25:15.089Z,15.26
2017-09-27T05:25:43.236Z,15.27
2017-09-27T05:26:11.201Z,15.26
2017-09-27T05:26:39.338Z,15.31
2017-09-27T05:27:07.367Z,15.23
2017-09-27T05:27:35.579Z,15.25
2017-09-27T05:28:03.737Z,15.33
2017-09-27T05:28:31.880Z,15.31
2017-09-27T05:29:00.036Z,15.25
2017-09-27T05:29:27.968Z,15.25
2017-09-27T05:29:56.106Z,15.27
2017-09-27T05:30:24.234Z,15.3
2017-09-27T05:30:52.337Z,15.3
2017-09-27T05:31:20.284Z,15.31
2017-09-27T05:31:48.307Z,15.26
2017-09-27T05:32:16.429Z,15.26
2017-09-27T05:32:44.675Z,15.27
2017-09-27T05:33:12.819Z,15.3
2017-09-27T05:33:40.949Z,15.3
2017-09-27T05:34:09.069Z,15.26
2017-09-27T05:34:37.003Z,15.31
2017-09-27T05:35:05.135Z,15.27
2017-09-27T05:35:32.974Z,15.26
2017-09-27T05:36:01.093Z,15.23
2017-09-27T05:36:29.064Z,15.3
2017-09-27T05:36:57.180Z,15.26
2017-09-27T05:37:25.225Z,15.3
2017-09-27T05:37:53.275Z,15.23
2017-09-27T05:38:21.235Z,15.22
2017-09-27T05:38:49.166Z,15.16
2017-09-27T05:39:17.316Z,15.16
2017-09-27T05:39:45.349Z,15.12
2017-09-27T05:40:13.415Z,15.16
2017-09-27T05:40:41.549Z,15.18
2017-09-27T05:41:09.582Z,15.18
2017-09-27T05:41:37.500Z,15.15
2017-09-27T05:42:05.642Z,15.2
2017-09-27T05:42:33.903Z,15.16
2017-09-27T05:43:02.058Z,15.2
2017-09-27T05:43:30.129Z,15.07
2017-09-27T05:43:58.282Z,15.12
2017-09-27T05:44:26.107Z,15.05
2017-09-27T05:44:54.040Z,15.05
2017-09-27T05:45:22.158Z,15.02
2017-09-27T05:45:50.277Z,15.07
2017-09-27T05:46:18.211Z,15.05
2017-09-27T05:46:46.364Z,15
2017-09-27T05:47:14.394Z,15.08
2017-09-27T05:47:42.319Z,15.15
2017-09-27T05:48:10.358Z,15.07
2017-09-27T05:48:38.387Z,15.07
2017-09-27T05:49:06.423Z,15.05
2017-09-27T05:49:34.555Z,15.05
2017-09-27T05:50:02.602Z,15.02
2017-09-27T05:50:30.550Z,15.05
2017-09-27T05:50:58.685Z,15.05
2017-09-27T05:51:26.714Z,15.01
2017-09-27T05:51:54.676Z,15.02
2017-09-27T05:52:22.804Z,15.07
2017-09-27T05:52:50.928Z,15.01
2017-09-27T05:53:18.732Z,15.07
2017-09-27T05:53:46.782Z,15.05
2017-09-27T05:54:14.795Z,15.07
2017-09-27T05:54:42.940Z,15.01
2017-09-27T05:55:10.980Z,15.04
2017-09-27T05:55:39.116Z,15.02
2017-09-27T05:56:07.270Z,15.07
2017-09-27T05:56:35.281Z,15.02
2017-09-27T05:57:03.428Z,15.07
2017-09-27T05:57:31.709Z,15.07
2017-09-27T05:57:59.960Z,15.07
2017-09-27T05:58:28.120Z,15.04
2017-09-27T05:58:56.172Z,15.1
2017-09-27T05:59:24.122Z,14.97
2017-09-27T05:59:52.255Z,15.08
2017-09-27T06:00:20.357Z,15.05
2017-09-27T06:00:48.379Z,15.05
2017-09-27T06:01:16.349Z,15.07
2017-09-27T06:01:44.369Z,15.12
2017-09-27T06:02:12.318Z,15.08
2017-09-27T06:02:40.482Z,15.15
2017-09-27T06:03:08.567Z,15.1
2017-09-27T06:03:36.593Z,15.05
2017-09-27T06:04:04.610Z,15.08
2017-09-27T06:04:32.662Z,15.07
2017-09-27T06:05:00.661Z,15.16
2017-09-27T06:05:28.824Z,15.22